»·PEaware :: N155SH KPSP-KSNA

N155SH :: KPSP-KSNA

FLIGHT INFORMATION

Flight Status: Arrived
Operator: Privately registered:
United States
More flights under this callsign
Pilot: Tyler D. (629)
Aircraft: ECLIPSE 500
(EA50)
More flights by this aircraft type
Origin: KPSP Palm Springs Intl
United States
Destination: KSNA John Wayne-Orange Co
United States
More flights between these airports :: More routes between these airports
Route: CATH1 PSP V388 DEWAY FRETS KAYOH7
File this flight plan on PilotEdge
Remarks: TEC route PSPP8B. Testing setup fix - network issues last flight. FYI in case of sudden log off.
Altitude:
(Current/Filed)
12,000ft
Speed:
(Current/Filed)
230kts
Departed: 11-Jan-21 09:39 PM
Arrived: 11-Jan-21 10:05 PM
Distance/Time
Traveled:
69nm/0:26
Distance/Time
To Go:
Arrived

Flight Plot

Page will automatically refresh every two minutes.

Flight plan parsing failed; only flown route is shown


Map Options




Map Legend


Flown Route
Filed Route
Departure Airport
Arrival Airport
Navaid (VOR, NDB)
Fix

Horizontal Profiles

Position Reports

Time Latitude Longitude Heading Altitude Ground
Speed
11-Jan-21 21:22 33.822008 -116.496265 323 392ft 0kts
11-Jan-21 21:23 33.822008 -116.496265 323 392ft 0kts
11-Jan-21 21:24 33.822008 -116.496265 323 392ft 0kts
11-Jan-21 21:25 33.822008 -116.496265 323 392ft 0kts
11-Jan-21 21:27 33.822008 -116.496265 323 392ft 0kts
11-Jan-21 21:28 33.822008 -116.496265 323 392ft 0kts
11-Jan-21 21:29 33.822008 -116.496265 323 392ft 0kts
11-Jan-21 21:30 33.822008 -116.496265 323 392ft 0kts
11-Jan-21 21:31 33.822008 -116.496265 323 392ft 0kts
11-Jan-21 21:32 33.822008 -116.496265 323 392ft 0kts
11-Jan-21 21:33 33.822019 -116.496375 259 392ft 0kts
11-Jan-21 21:34 33.820919 -116.495729 143 390ft 5kts
11-Jan-21 21:35 33.819411 -116.496794 232 390ft 9kts
11-Jan-21 21:36 33.819193 -116.497132 232 391ft 0kts
11-Jan-21 21:37 33.819193 -116.497132 232 391ft 0kts
11-Jan-21 21:38 33.819092 -116.497293 235 391ft 6kts
11-Jan-21 21:39 33.828975 -116.507022 323 460ft 127kts
11-Jan-21 21:40 33.866959 -116.543297 321 2301ft 216kts
11-Jan-21 21:41 33.920880 -116.576909 5 4591ft 226kts
11-Jan-21 21:42 33.937715 -116.519888 50 7548ft 183kts
11-Jan-21 21:42 33.966431 -116.522975 282 9891ft 141kts
11-Jan-21 21:44 33.961324 -116.576112 275 11922ft 146kts
11-Jan-21 21:44 33.957554 -116.631457 270 12008ft 251kts
11-Jan-21 21:46 33.948219 -116.742043 262 11991ft 304kts
11-Jan-21 21:46 33.929616 -116.825379 259 11999ft 312kts
11-Jan-21 21:47 33.907475 -116.926516 259 11997ft 312kts
11-Jan-21 21:48 33.885242 -117.026783 259 11993ft 295kts
11-Jan-21 21:49 33.864906 -117.118139 260 12056ft 285kts
11-Jan-21 21:50 33.844967 -117.207309 260 11596ft 262kts
11-Jan-21 21:51 33.826083 -117.291852 258 10412ft 259kts
11-Jan-21 21:52 33.807184 -117.375696 257 9219ft 260kts
11-Jan-21 21:53 33.788776 -117.457203 257 8116ft 226kts
11-Jan-21 21:54 33.788231 -117.528353 301 8051ft 236kts
11-Jan-21 21:55 33.821042 -117.595966 301 6720ft 229kts
11-Jan-21 21:56 33.852300 -117.659575 301 6233ft 205kts
11-Jan-21 21:57 33.879818 -117.715572 301 4667ft 188kts
11-Jan-21 21:58 33.864246 -117.754837 181 3079ft 158kts
11-Jan-21 21:59 33.826377 -117.772999 209 3051ft 161kts
11-Jan-21 22:00 33.782921 -117.800731 208 2361ft 162kts
11-Jan-21 22:01 33.751685 -117.820587 207 1628ft 112kts
11-Jan-21 22:02 33.722140 -117.839351 207 985ft 122kts
11-Jan-21 22:03 33.693423 -117.857508 206 341ft 107kts
11-Jan-21 22:04 33.672521 -117.870845 209 59ft 30kts
11-Jan-21 22:05 33.669493 -117.871989 143 59ft 8kts
11-Jan-21 22:06 33.669903 -117.870121 43 59ft 4kts
11-Jan-21 22:07 33.671863 -117.867617 124 59ft 5kts
11-Jan-21 22:08 33.671706 -117.867301 117 59ft 0kts
11-Jan-21 22:09 33.671706 -117.867301 117 59ft 0kts
11-Jan-21 22:10 33.671706 -117.867301 117 59ft 0kts
11-Jan-21 22:11 33.671706 -117.867301 117 59ft 0kts
11-Jan-21 22:12 33.671706 -117.867301 117 59ft 0kts
11-Jan-21 22:13 33.671706 -117.867301 117 59ft 0kts
11-Jan-21 22:14 33.671706 -117.867301 117 59ft 0kts
11-Jan-21 22:15 33.671706 -117.867301 117 59ft 0kts

Navigation Log

Ident Type
Flight plan parsing failed, navigation log unavailable